createdAt,value
2018-07-21T00:00:39.559Z,23.50
2018-07-21T00:03:15.935Z,23.40
2018-07-21T00:05:52.188Z,23.40
2018-07-21T00:08:28.544Z,23.40
2018-07-21T00:11:04.911Z,23.30
2018-07-21T00:13:41.335Z,23.30
2018-07-21T00:16:17.851Z,23.30
2018-07-21T00:18:54.249Z,23.20
2018-07-21T00:21:30.627Z,23.10
2018-07-21T00:24:06.967Z,23.20
2018-07-21T00:26:48.295Z,23.00
2018-07-21T00:29:24.480Z,22.90
2018-07-21T00:32:00.737Z,22.80
2018-07-21T00:34:37.145Z,22.80
2018-07-21T00:37:13.439Z,22.80
2018-07-21T00:39:49.808Z,22.80
2018-07-21T00:42:26.235Z,22.70
2018-07-21T00:45:02.896Z,22.60
2018-07-21T00:47:39.188Z,22.60
2018-07-21T00:50:15.567Z,22.50
2018-07-21T00:55:27.710Z,22.40
2018-07-21T00:58:04.005Z,22.30
2018-07-21T01:00:40.311Z,22.20
2018-07-21T01:03:16.571Z,22.20
2018-07-21T01:05:52.862Z,22.20
2018-07-21T01:08:29.075Z,22.20
2018-07-21T01:11:05.537Z,22.10
2018-07-21T01:13:41.992Z,22.10
2018-07-21T01:16:18.272Z,22.10
2018-07-21T01:18:54.448Z,22.20
2018-07-21T01:21:30.717Z,22.10
2018-07-21T01:24:07.187Z,22.10
2018-07-21T01:26:43.459Z,22.10
2018-07-21T01:29:19.798Z,22.10
2018-07-21T01:31:56.083Z,22.00
2018-07-21T01:34:32.399Z,22.10
2018-07-21T01:37:08.829Z,22.00
2018-07-21T01:39:45.131Z,21.90
2018-07-21T01:42:21.445Z,21.90
2018-07-21T01:44:57.644Z,21.90
2018-07-21T01:47:34.695Z,21.80
2018-07-21T01:50:11.039Z,21.70
2018-07-21T01:52:47.347Z,21.70
2018-07-21T01:55:23.624Z,21.70
2018-07-21T01:57:59.984Z,21.70
2018-07-21T02:00:36.429Z,21.70
2018-07-21T02:03:12.701Z,22.00
2018-07-21T02:05:49.038Z,21.70
2018-07-21T02:08:25.448Z,21.80
2018-07-21T02:11:01.836Z,21.70
2018-07-21T02:13:38.180Z,21.60
2018-07-21T02:16:14.517Z,21.60
2018-07-21T02:18:50.921Z,21.50
2018-07-21T02:21:27.260Z,21.50
2018-07-21T02:24:03.456Z,21.50
2018-07-21T02:26:39.834Z,21.50
2018-07-21T02:29:16.204Z,21.50
2018-07-21T02:31:52.581Z,21.40
2018-07-21T02:34:28.885Z,21.40
2018-07-21T02:37:05.232Z,21.30
2018-07-21T02:39:41.616Z,21.30
2018-07-21T02:42:18.032Z,21.30
2018-07-21T02:44:54.347Z,21.20
2018-07-21T02:47:30.695Z,21.20
2018-07-21T02:50:07.291Z,21.10
2018-07-21T02:52:43.760Z,21.10
2018-07-21T02:55:20.020Z,21.10
2018-07-21T02:57:56.360Z,21.10
2018-07-21T03:00:32.751Z,21.10
2018-07-21T03:03:09.199Z,21.20
2018-07-21T03:05:45.587Z,21.20
2018-07-21T03:08:21.901Z,21.20
2018-07-21T03:10:58.097Z,21.20
2018-07-21T03:13:34.545Z,21.20
2018-07-21T03:16:10.936Z,21.10
2018-07-21T03:18:47.328Z,21.10
2018-07-21T03:21:23.704Z,21.10
2018-07-21T03:24:00.049Z,21.10
2018-07-21T03:26:36.323Z,21.10
2018-07-21T03:29:12.633Z,21.10
2018-07-21T03:31:48.936Z,21.10
2018-07-21T03:34:25.247Z,21.10
2018-07-21T03:37:01.505Z,21.10
2018-07-21T03:39:42.663Z,21.10
2018-07-21T03:42:18.768Z,21.80
2018-07-21T03:44:54.990Z,21.00
2018-07-21T03:47:31.352Z,21.00
2018-07-21T03:50:07.643Z,21.00
2018-07-21T03:52:44.046Z,20.90
2018-07-21T03:55:20.475Z,21.00
2018-07-21T03:57:56.842Z,20.90
2018-07-21T04:00:33.149Z,20.90
2018-07-21T04:03:09.492Z,20.90
2018-07-21T04:05:45.695Z,20.80
2018-07-21T04:08:21.823Z,20.80
2018-07-21T04:10:58.147Z,20.90
2018-07-21T04:13:34.539Z,20.80
2018-07-21T04:16:10.878Z,20.80
2018-07-21T04:18:47.164Z,20.90
2018-07-21T04:21:23.406Z,20.80
2018-07-21T04:23:59.707Z,20.80
2018-07-21T04:26:36.230Z,20.80
2018-07-21T04:29:12.526Z,20.70
2018-07-21T04:31:48.889Z,20.80
2018-07-21T04:34:25.152Z,20.80
2018-07-21T04:37:01.571Z,20.80
2018-07-21T04:39:37.935Z,20.80
2018-07-21T04:42:14.248Z,20.70
2018-07-21T04:44:50.531Z,20.70
2018-07-21T04:47:26.823Z,20.80
2018-07-21T04:50:03.205Z,20.80
2018-07-21T04:52:39.415Z,20.90
2018-07-21T04:55:15.721Z,20.90
2018-07-21T04:57:51.916Z,20.90
2018-07-21T05:00:28.427Z,21.00
2018-07-21T05:03:05.427Z,21.00
2018-07-21T05:05:41.835Z,21.20
2018-07-21T05:08:18.042Z,21.20
2018-07-21T05:10:54.171Z,21.40
2018-07-21T05:13:30.412Z,21.40
2018-07-21T05:16:06.976Z,21.40
2018-07-21T05:18:43.419Z,21.40
2018-07-21T05:21:19.973Z,21.40
2018-07-21T05:23:56.372Z,21.40
2018-07-21T05:26:32.834Z,21.40
2018-07-21T05:29:09.280Z,21.30
2018-07-21T05:31:45.594Z,21.30
2018-07-21T05:34:21.957Z,21.40
2018-07-21T05:36:58.268Z,21.40
2018-07-21T05:39:34.545Z,21.50
2018-07-21T05:42:10.944Z,21.40
2018-07-21T05:44:47.187Z,21.30
2018-07-21T05:47:23.638Z,21.30
2018-07-21T05:50:00.000Z,21.30
2018-07-21T05:52:36.342Z,21.30
2018-07-21T05:55:12.628Z,21.40
2018-07-21T05:57:49.002Z,21.50
2018-07-21T06:00:25.289Z,21.70
2018-07-21T06:03:02.234Z,21.70
2018-07-21T06:05:38.448Z,21.80
2018-07-21T06:08:14.742Z,22.00
2018-07-21T06:10:51.163Z,22.10
2018-07-21T06:13:27.464Z,22.20
2018-07-21T06:16:03.722Z,22.30
2018-07-21T06:18:40.114Z,22.30
2018-07-21T06:21:16.330Z,22.30
2018-07-21T06:23:52.807Z,22.40
2018-07-21T06:26:29.148Z,22.70
2018-07-21T06:29:05.600Z,22.30
2018-07-21T06:31:41.976Z,22.40
2018-07-21T06:34:18.159Z,22.40
2018-07-21T06:36:54.459Z,22.40
2018-07-21T06:39:30.740Z,22.50
2018-07-21T06:42:07.128Z,22.60
2018-07-21T06:44:43.815Z,22.70
2018-07-21T06:47:20.009Z,22.50
2018-07-21T06:49:56.303Z,22.60
2018-07-21T06:52:32.539Z,22.70
2018-07-21T06:55:12.075Z,22.70
2018-07-21T06:57:48.220Z,22.60
2018-07-21T07:00:24.628Z,22.70
2018-07-21T07:03:00.939Z,22.60
2018-07-21T07:05:37.283Z,22.50
2018-07-21T07:08:13.649Z,22.60
2018-07-21T07:10:49.932Z,22.60
2018-07-21T07:13:26.212Z,22.50
2018-07-21T07:16:02.629Z,22.50
2018-07-21T07:18:39.489Z,22.40
2018-07-21T07:21:15.974Z,22.40
2018-07-21T07:23:52.303Z,22.30
2018-07-21T07:26:28.614Z,22.40
2018-07-21T07:29:05.239Z,22.30
2018-07-21T07:31:41.451Z,22.50
2018-07-21T07:34:17.864Z,22.70
2018-07-21T07:36:54.212Z,23.10
2018-07-21T07:39:30.461Z,23.50
2018-07-21T07:42:06.979Z,23.70
2018-07-21T07:44:43.263Z,23.90
2018-07-21T07:47:19.743Z,23.80
2018-07-21T07:49:56.131Z,23.90
2018-07-21T07:52:32.303Z,23.80
2018-07-21T07:55:08.632Z,23.80
2018-07-21T07:57:44.959Z,23.90
2018-07-21T08:00:21.361Z,23.80
2018-07-21T08:02:57.946Z,23.50
2018-07-21T08:05:34.596Z,23.70
2018-07-21T08:08:10.828Z,23.70
2018-07-21T08:10:47.236Z,23.60
2018-07-21T08:13:23.551Z,23.80
2018-07-21T08:15:59.774Z,23.80
2018-07-21T08:18:36.156Z,24.00
2018-07-21T08:21:12.612Z,24.00
2018-07-21T08:23:48.857Z,23.90
2018-07-21T08:26:25.256Z,24.10
2018-07-21T08:29:01.740Z,24.20
2018-07-21T08:31:38.126Z,24.40
2018-07-21T08:34:14.444Z,24.40
2018-07-21T08:36:50.729Z,24.40
2018-07-21T08:39:27.150Z,24.50
2018-07-21T08:42:03.512Z,24.60
2018-07-21T08:44:39.919Z,24.80
2018-07-21T08:47:16.261Z,24.90
2018-07-21T08:49:52.686Z,24.80
2018-07-21T08:52:29.033Z,24.80
2018-07-21T08:55:05.467Z,25.00
2018-07-21T08:57:41.775Z,24.80
2018-07-21T09:00:22.112Z,24.90
2018-07-21T09:02:58.543Z,24.80
2018-07-21T09:05:34.999Z,24.70
2018-07-21T09:08:11.671Z,24.80
2018-07-21T09:10:47.843Z,24.90
2018-07-21T09:13:24.188Z,25.00
2018-07-21T09:16:00.442Z,24.90
2018-07-21T09:18:36.869Z,24.90
2018-07-21T09:21:13.231Z,24.70
2018-07-21T09:23:49.523Z,24.40
2018-07-21T09:26:25.815Z,24.30
2018-07-21T09:29:02.177Z,24.40
2018-07-21T09:31:38.612Z,24.20
2018-07-21T09:34:15.036Z,24.00
2018-07-21T09:36:51.319Z,23.70
2018-07-21T09:39:27.717Z,23.70
2018-07-21T09:44:40.302Z,23.40
2018-07-21T09:47:16.579Z,23.00
2018-07-21T09:49:52.842Z,23.00
2018-07-21T09:52:29.294Z,22.80
2018-07-21T09:55:06.229Z,22.70
2018-07-21T09:57:42.511Z,22.60
2018-07-21T10:00:23.948Z,22.50
2018-07-21T10:03:00.236Z,22.40
2018-07-21T10:05:36.511Z,22.40
2018-07-21T10:08:11.879Z,22.40
2018-07-21T10:10:47.090Z,22.40
2018-07-21T10:13:23.128Z,22.30
2018-07-21T10:15:59.491Z,22.40
2018-07-21T10:18:35.797Z,22.40
2018-07-21T10:21:12.112Z,22.40
2018-07-21T10:23:48.550Z,22.30
2018-07-21T10:26:30.114Z,22.30
2018-07-21T10:29:07.489Z,22.30
2018-07-21T10:31:44.645Z,22.30
2018-07-21T10:34:20.891Z,22.40
2018-07-21T10:36:57.173Z,22.30
2018-07-21T10:39:33.524Z,22.30
2018-07-21T10:42:09.952Z,22.30
2018-07-21T10:44:46.289Z,22.20
2018-07-21T10:47:22.601Z,22.20
2018-07-21T10:49:59.011Z,22.10
2018-07-21T10:52:35.944Z,22.00
2018-07-21T10:55:12.281Z,21.90
2018-07-21T10:57:48.511Z,21.90
2018-07-21T11:00:24.920Z,21.90
2018-07-21T11:03:01.336Z,21.90
2018-07-21T11:05:37.785Z,21.90
2018-07-21T11:08:14.108Z,21.70
2018-07-21T11:10:50.499Z,21.80
2018-07-21T11:13:26.829Z,21.70
2018-07-21T11:16:03.220Z,21.70
2018-07-21T11:18:39.610Z,21.60
2018-07-21T11:21:16.054Z,21.50
2018-07-21T11:23:52.218Z,21.50
2018-07-21T11:26:28.531Z,21.50
2018-07-21T11:29:04.854Z,21.60
2018-07-21T11:31:41.440Z,21.60
2018-07-21T11:34:17.757Z,21.60
2018-07-21T11:36:54.083Z,21.40
2018-07-21T11:39:30.391Z,21.40
2018-07-21T11:42:06.899Z,21.50
2018-07-21T11:44:43.470Z,21.40
2018-07-21T11:47:19.779Z,21.40
2018-07-21T11:49:56.057Z,21.50
2018-07-21T11:52:32.346Z,21.50
2018-07-21T11:55:08.734Z,21.40
2018-07-21T11:57:45.108Z,21.40
2018-07-21T12:00:21.421Z,21.40
2018-07-21T12:02:57.573Z,21.40
2018-07-21T12:05:34.077Z,21.40
2018-07-21T12:08:10.321Z,21.50
2018-07-21T12:10:46.657Z,21.40
2018-07-21T12:13:22.953Z,21.30
2018-07-21T12:15:59.221Z,21.30
2018-07-21T12:18:35.554Z,21.40
2018-07-21T12:21:11.917Z,21.40
2018-07-21T12:23:48.195Z,21.40
2018-07-21T12:26:24.606Z,21.50
2018-07-21T12:29:00.844Z,21.40
2018-07-21T12:31:37.147Z,21.40
2018-07-21T12:34:13.540Z,21.30
2018-07-21T12:36:49.780Z,21.40
2018-07-21T12:39:26.087Z,21.40
2018-07-21T12:42:02.383Z,21.40
2018-07-21T12:44:38.666Z,21.40
2018-07-21T12:47:15.014Z,21.50
2018-07-21T12:49:51.340Z,21.50
2018-07-21T12:52:27.589Z,21.60
2018-07-21T12:55:04.221Z,21.60
2018-07-21T12:57:40.694Z,21.60
2018-07-21T13:00:16.821Z,21.60
2018-07-21T13:02:53.118Z,21.70
2018-07-21T13:05:29.484Z,21.60
2018-07-21T13:08:06.021Z,21.70
2018-07-21T13:10:42.303Z,21.60
2018-07-21T13:13:18.653Z,21.60
2018-07-21T13:15:54.960Z,21.60
2018-07-21T13:18:31.268Z,21.70
2018-07-21T13:21:07.731Z,21.90
2018-07-21T13:23:43.864Z,22.00
2018-07-21T13:26:20.199Z,22.00
2018-07-21T13:28:56.407Z,22.00
2018-07-21T13:31:35.796Z,22.10
2018-07-21T13:34:12.052Z,22.10
2018-07-21T13:36:48.353Z,22.20
2018-07-21T13:39:24.752Z,22.30
2018-07-21T13:44:37.127Z,22.60
2018-07-21T13:47:13.532Z,22.50
2018-07-21T13:49:49.799Z,22.40
2018-07-21T13:52:26.193Z,22.40
2018-07-21T13:55:03.146Z,22.60
2018-07-21T13:57:39.520Z,22.60
2018-07-21T14:00:15.954Z,22.70
2018-07-21T14:02:52.201Z,22.70
2018-07-21T14:05:28.588Z,22.80
2018-07-21T14:08:04.886Z,22.70
2018-07-21T14:10:41.314Z,22.70
2018-07-21T14:13:17.679Z,22.60
2018-07-21T14:15:54.103Z,22.60
2018-07-21T14:18:30.568Z,22.70
2018-07-21T14:21:06.822Z,22.90
2018-07-21T14:23:43.272Z,22.90
2018-07-21T14:26:19.557Z,23.00
2018-07-21T14:28:55.904Z,22.90
2018-07-21T14:31:32.241Z,23.00
2018-07-21T14:34:08.497Z,23.10
2018-07-21T14:36:44.715Z,23.20
2018-07-21T14:39:21.020Z,23.40
2018-07-21T14:41:57.240Z,23.40
2018-07-21T14:44:33.607Z,23.20
2018-07-21T14:47:10.046Z,23.20
2018-07-21T14:49:46.155Z,23.20
2018-07-21T14:52:22.360Z,23.30
2018-07-21T14:54:58.676Z,23.30
2018-07-21T14:57:35.008Z,23.50
2018-07-21T15:00:11.191Z,23.40
2018-07-21T15:02:47.480Z,23.20
2018-07-21T15:05:23.813Z,23.10
2018-07-21T15:08:00.035Z,23.10
2018-07-21T15:10:36.474Z,23.10
2018-07-21T15:13:12.956Z,23.00
2018-07-21T15:15:49.372Z,23.00
2018-07-21T15:18:25.751Z,23.00
2018-07-21T15:21:01.924Z,23.00
2018-07-21T15:23:38.491Z,23.00
2018-07-21T15:26:14.759Z,23.00
2018-07-21T15:28:51.035Z,22.90
2018-07-21T15:31:27.253Z,23.00
2018-07-21T15:34:03.728Z,22.80
2018-07-21T15:36:40.231Z,22.80
2018-07-21T15:39:16.590Z,22.80
2018-07-21T15:41:52.895Z,22.60
2018-07-21T15:44:29.265Z,22.70
2018-07-21T15:47:05.810Z,22.70
2018-07-21T15:49:42.252Z,22.80
2018-07-21T15:52:18.547Z,22.90
2018-07-21T15:54:54.951Z,22.80
2018-07-21T15:57:31.385Z,22.90
2018-07-21T16:00:08.342Z,22.90
2018-07-21T16:02:44.633Z,23.00
2018-07-21T16:05:20.923Z,22.90
2018-07-21T16:07:57.189Z,22.90
2018-07-21T16:10:33.618Z,22.80
2018-07-21T16:13:10.016Z,22.80
2018-07-21T16:15:46.344Z,22.80
2018-07-21T16:18:22.615Z,22.90
2018-07-21T16:20:59.028Z,23.00
2018-07-21T16:26:11.352Z,23.00
2018-07-21T16:28:47.716Z,23.00
2018-07-21T16:31:24.008Z,22.90
2018-07-21T16:34:00.337Z,22.80
2018-07-21T16:36:36.739Z,22.80
2018-07-21T16:39:13.044Z,22.70
2018-07-21T16:41:49.399Z,22.70
2018-07-21T16:44:25.816Z,22.80
2018-07-21T16:47:02.172Z,22.90
2018-07-21T16:49:38.566Z,22.90
2018-07-21T16:52:14.851Z,22.90
2018-07-21T16:54:51.218Z,22.80
2018-07-21T16:57:27.331Z,22.70
2018-07-21T17:00:03.882Z,22.70
2018-07-21T17:02:40.336Z,22.70
2018-07-21T17:05:16.759Z,22.70
2018-07-21T17:07:52.934Z,22.80
2018-07-21T17:10:29.307Z,22.70
2018-07-21T17:13:05.773Z,22.80
2018-07-21T17:15:42.104Z,22.80
2018-07-21T17:18:18.477Z,22.80
2018-07-21T17:23:30.724Z,22.80
2018-07-21T17:26:07.172Z,22.80
2018-07-21T17:28:43.405Z,22.70
2018-07-21T17:31:19.751Z,22.60
2018-07-21T17:33:56.183Z,22.70
2018-07-21T17:36:33.949Z,22.60
2018-07-21T17:39:11.507Z,22.80
2018-07-21T17:41:47.691Z,22.80
2018-07-21T17:44:23.887Z,22.70
2018-07-21T17:47:00.153Z,22.60
2018-07-21T17:49:36.494Z,22.60
2018-07-21T17:52:12.825Z,22.60
2018-07-21T17:54:49.072Z,22.60
2018-07-21T17:57:25.322Z,22.60
2018-07-21T18:00:01.557Z,22.60
2018-07-21T18:02:38.016Z,22.70
2018-07-21T18:05:14.491Z,22.60
2018-07-21T18:07:50.860Z,22.60
2018-07-21T18:10:27.211Z,22.60
2018-07-21T18:13:04.147Z,22.60
2018-07-21T18:15:40.493Z,22.50
2018-07-21T18:18:16.920Z,22.60
2018-07-21T18:20:53.243Z,22.60
2018-07-21T18:23:29.488Z,22.50
2018-07-21T18:26:05.989Z,22.50
2018-07-21T18:28:42.348Z,22.50
2018-07-21T18:31:18.951Z,22.40
2018-07-21T18:33:55.329Z,22.50
2018-07-21T18:36:31.669Z,22.40
2018-07-21T18:39:10.823Z,22.40
2018-07-21T18:41:47.130Z,22.40
2018-07-21T18:44:23.846Z,22.40
2018-07-21T18:47:00.914Z,22.30
2018-07-21T18:49:37.250Z,22.20
2018-07-21T18:52:13.823Z,22.20
2018-07-21T18:54:51.059Z,22.20
2018-07-21T18:57:28.184Z,22.10
2018-07-21T19:00:05.029Z,22.20
2018-07-21T19:02:41.561Z,22.10
2018-07-21T19:05:18.097Z,22.10
2018-07-21T19:07:56.398Z,20.50
2018-07-21T19:10:34.868Z,22.10
2018-07-21T19:13:11.146Z,22.20
2018-07-21T19:15:53.092Z,22.20
2018-07-21T19:18:29.468Z,22.10
2018-07-21T19:21:10.864Z,22.00
2018-07-21T19:23:48.748Z,21.90
2018-07-21T19:26:30.287Z,21.90
2018-07-21T19:29:06.868Z,21.90
2018-07-21T19:31:49.309Z,21.80
2018-07-21T19:34:25.545Z,21.80
2018-07-21T19:37:01.907Z,21.70
2018-07-21T19:39:38.275Z,21.70
2018-07-21T19:42:14.584Z,21.70
2018-07-21T19:44:50.920Z,21.70
2018-07-21T19:47:27.440Z,21.60
2018-07-21T19:50:03.991Z,21.60
2018-07-21T19:52:40.839Z,21.60
2018-07-21T19:55:17.063Z,21.60
2018-07-21T19:57:53.404Z,21.50
2018-07-21T20:00:29.799Z,21.50
2018-07-21T20:03:06.652Z,21.50
2018-07-21T20:05:43.054Z,21.40
2018-07-21T20:08:19.317Z,21.40
2018-07-21T20:10:55.736Z,21.40
2018-07-21T20:13:32.124Z,21.30
2018-07-21T20:16:08.535Z,21.30
2018-07-21T20:18:44.796Z,21.30
2018-07-21T20:21:21.112Z,21.20
2018-07-21T20:23:57.401Z,21.20
2018-07-21T20:26:33.909Z,21.20
2018-07-21T20:29:10.074Z,21.10
2018-07-21T20:31:46.363Z,21.10
2018-07-21T20:34:22.871Z,21.10
2018-07-21T20:36:59.246Z,21.10
2018-07-21T20:39:35.741Z,21.00
2018-07-21T20:42:12.246Z,21.00
2018-07-21T20:44:48.369Z,21.00
2018-07-21T20:47:24.786Z,21.00
2018-07-21T20:50:01.147Z,21.00
2018-07-21T20:52:37.471Z,20.90
2018-07-21T20:55:13.846Z,20.90
2018-07-21T20:57:50.151Z,20.90
2018-07-21T21:00:26.508Z,20.80
2018-07-21T21:03:03.157Z,20.80
2018-07-21T21:05:39.511Z,20.80
2018-07-21T21:08:15.936Z,20.70
2018-07-21T21:10:52.120Z,20.80
2018-07-21T21:13:28.503Z,20.70
2018-07-21T21:16:04.972Z,20.70
2018-07-21T21:18:41.339Z,20.70
2018-07-21T21:21:17.767Z,20.80
2018-07-21T21:23:54.121Z,20.80
2018-07-21T21:26:30.440Z,20.70
2018-07-21T21:29:06.905Z,20.70
2018-07-21T21:31:43.197Z,20.70
2018-07-21T21:34:19.294Z,20.70
2018-07-21T21:36:55.612Z,20.70
2018-07-21T21:39:31.927Z,20.60
2018-07-21T21:42:08.555Z,20.60
2018-07-21T21:44:44.658Z,20.60
2018-07-21T21:47:21.011Z,20.60
2018-07-21T21:49:57.364Z,20.60
2018-07-21T21:52:33.681Z,20.60
2018-07-21T21:55:09.993Z,20.60
2018-07-21T21:57:46.411Z,20.60
2018-07-21T22:00:22.711Z,20.50
2018-07-21T22:02:59.036Z,20.50
2018-07-21T22:05:35.611Z,20.40
2018-07-21T22:08:12.003Z,20.50
2018-07-21T22:10:48.344Z,20.50
2018-07-21T22:13:24.605Z,20.50
2018-07-21T22:16:01.172Z,20.50
2018-07-21T22:18:37.630Z,20.40
2018-07-21T22:21:14.011Z,20.40
2018-07-21T22:23:50.407Z,20.30
2018-07-21T22:26:26.665Z,20.30
2018-07-21T22:29:03.057Z,20.30
2018-07-21T22:31:39.452Z,20.30
2018-07-21T22:34:15.791Z,20.20
2018-07-21T22:36:52.131Z,20.20
2018-07-21T22:39:28.523Z,20.10
2018-07-21T22:42:04.968Z,20.10
2018-07-21T22:44:41.344Z,20.10
2018-07-21T22:47:17.664Z,20.10
2018-07-21T22:49:53.890Z,20.00
2018-07-21T22:52:29.991Z,20.00
2018-07-21T22:55:06.287Z,20.00
2018-07-21T22:57:42.703Z,20.00
2018-07-21T23:00:19.014Z,20.00
2018-07-21T23:02:55.323Z,20.00
2018-07-21T23:05:31.799Z,20.00
2018-07-21T23:08:08.285Z,19.90
2018-07-21T23:10:44.573Z,19.80
2018-07-21T23:13:20.837Z,19.70
2018-07-21T23:15:57.012Z,19.60
2018-07-21T23:18:33.327Z,19.60
2018-07-21T23:21:09.656Z,19.50
2018-07-21T23:23:46.006Z,19.40
2018-07-21T23:26:22.359Z,19.40
2018-07-21T23:28:58.582Z,19.50
2018-07-21T23:31:35.044Z,19.50
2018-07-21T23:34:11.296Z,19.50
2018-07-21T23:36:50.076Z,19.50
2018-07-21T23:39:26.232Z,19.60
2018-07-21T23:42:02.476Z,19.60
2018-07-21T23:44:39.558Z,19.60
2018-07-21T23:47:15.706Z,19.60
2018-07-21T23:49:52.035Z,19.50
2018-07-21T23:52:28.459Z,19.50
2018-07-21T23:55:06.623Z,19.50
2018-07-21T23:57:42.884Z,19.60
